Time;durP1;ratioP1;P1;durP2;ratioP2;P2;SDS_P1;SDS_P2;PMS_P1;PMS_P2;Temp;Humidity;BMP_temperature;BMP_pressure;BME280_temperature;BME280_humidity;BME280_pressure;Samples;Min_cycle;Max_cycle;Signal;HPM_P1;HPM_P2
2022/10/20 00:01:54;;;;;;;20.93;11.13;;;;;;;2.79;92.60;99934.63;2303050;77;20917;-80
2022/10/20 00:04:55;;;;;;;17.90;11.10;;;;;;;2.77;92.42;99928.89;2303200;77;20920;-84
2022/10/20 00:07:55;;;;;;;22.10;10.23;;;;;;;2.77;92.92;99928.89;2303030;77;21307;-83
2022/10/20 00:10:55;;;;;;;17.27;10.93;;;;;;;2.78;92.99;99935.42;2302371;77;20979;-83
2022/10/20 00:13:56;;;;;;;20.13;10.83;;;;;;;2.78;92.72;99939.30;2302714;77;20956;-81
2022/10/20 00:16:58;;;;;;;20.27;11.10;;;;;;;2.75;92.39;99937.83;2302948;77;20924;-82
2022/10/20 00:19:57;;;;;;;18.67;10.77;;;;;;;2.75;92.39;99937.83;2293374;77;20995;-82
2022/10/20 00:22:57;;;;;;;16.77;11.63;;;;;;;2.71;92.21;99938.44;2289517;78;21304;-82
2022/10/20 00:25:57;;;;;;;16.70;10.70;;;;;;;2.69;92.27;99937.86;2289361;78;20916;-83
2022/10/20 00:28:58;;;;;;;20.53;11.10;;;;;;;2.65;92.12;99934.20;2289568;78;20941;-83
2022/10/20 00:31:58;;;;;;;20.67;11.50;;;;;;;2.66;92.15;99942.43;2289477;78;20936;-83
2022/10/20 00:34:59;;;;;;;19.70;11.57;;;;;;;2.58;91.34;99937.58;2289128;78;21112;-84
2022/10/20 00:37:59;;;;;;;19.90;12.37;;;;;;;2.50;91.51;99930.27;2289697;78;20944;-82
2022/10/20 00:41:01;;;;;;;16.50;10.97;;;;;;;2.48;91.71;99928.00;2289809;78;20921;-82
2022/10/20 00:44:00;;;;;;;17.13;10.97;;;;;;;2.44;91.44;99931.58;2289121;78;21359;-81
2022/10/20 00:47:00;;;;;;;105.53;15.47;;;;;;;2.41;91.42;99931.39;2289528;78;20920;-83
2022/10/20 00:50:01;;;;;;;36.53;12.43;;;;;;;2.39;91.71;99928.73;2289667;78;20944;-84
2022/10/20 00:53:01;;;;;;;33.90;13.20;;;;;;;2.40;91.74;99925.75;2289771;78;20979;-83
2022/10/20 00:56:02;;;;;;;37.80;14.67;;;;;;;2.35;91.55;99924.19;2289784;78;20909;-82
2022/10/20 00:59:02;;;;;;;22.47;12.90;;;;;;;2.32;91.65;99926.97;2289477;78;21021;-82
2022/10/20 01:02:02;;;;;;;19.90;11.03;;;;;;;2.30;91.70;99926.88;2289515;78;20931;-83
2022/10/20 01:05:03;;;;;;;15.40;10.60;;;;;;;2.27;91.12;99936.99;2290509;78;20904;-83
2022/10/20 01:08:03;;;;;;;19.90;10.97;;;;;;;2.23;90.88;99941.47;2290573;78;20947;-83
2022/10/20 01:11:04;;;;;;;21.67;10.80;;;;;;;2.19;91.10;99940.38;2290214;78;20947;-84
2022/10/20 01:14:04;;;;;;;16.37;11.07;;;;;;;2.12;90.82;99934.36;2290037;78;21375;-84
2022/10/20 01:17:04;;;;;;;15.10;10.47;;;;;;;2.10;91.31;99937.64;2289990;78;21375;-84
2022/10/20 01:20:05;;;;;;;16.43;10.47;;;;;;;2.09;91.15;99933.28;2298143;77;21038;-84
2022/10/20 01:23:05;;;;;;;16.07;10.20;;;;;;;2.06;91.08;99935.66;2303205;77;20993;-83
2022/10/20 01:26:06;;;;;;;18.60;10.17;;;;;;;2.03;91.24;99929.03;2303164;77;20950;-82
2022/10/20 01:29:06;;;;;;;15.37;10.20;;;;;;;2.07;91.54;99929.31;2303166;77;21324;-84
2022/10/20 01:32:07;;;;;;;19.00;11.80;;;;;;;2.07;91.29;99927.14;2302847;77;21324;-84
2022/10/20 01:35:07;;;;;;;22.07;10.60;;;;;;;2.04;91.23;99924.37;2303015;77;21362;-84
2022/10/20 01:38:07;;;;;;;14.13;10.60;;;;;;;2.04;91.36;99918.83;2303097;77;20924;-84
2022/10/20 01:41:08;;;;;;;15.87;10.67;;;;;;;2.05;91.46;99921.00;2302828;77;20969;-82
2022/10/20 01:44:08;;;;;;;15.83;10.23;;;;;;;2.02;91.42;99920.81;2303011;77;20896;-82
2022/10/20 01:47:09;;;;;;;16.40;10.87;;;;;;;1.99;91.35;99921.52;2302953;77;20976;-83
2022/10/20 01:50:09;;;;;;;17.87;11.83;;;;;;;1.99;91.25;99916.76;2302968;77;20979;-84
2022/10/20 01:53:09;;;;;;;15.40;12.37;;;;;;;1.94;91.06;99919.45;2302923;77;20948;-84
2022/10/20 01:56:10;;;;;;;14.50;11.30;;;;;;;1.90;90.74;99928.27;2303294;77;21318;-84
2022/10/20 01:59:10;;;;;;;17.63;10.37;;;;;;;1.90;91.11;99923.11;2303003;77;20940;-83
2022/10/20 02:02:11;;;;;;;16.70;10.60;;;;;;;1.89;90.62;99927.77;2302759;77;20884;-82
2022/10/20 02:05:11;;;;;;;14.00;10.13;;;;;;;1.84;90.31;99930.85;2303158;77;20951;-83
2022/10/20 02:08:12;;;;;;;12.00;10.70;;;;;;;1.84;90.88;99926.98;2303491;77;20931;-82
2022/10/20 02:11:12;;;;;;;13.80;10.43;;;;;;;1.84;90.71;99924.02;2303119;77;21354;-84
2022/10/20 02:14:12;;;;;;;24.07;10.50;;;;;;;1.80;90.48;99920.75;2303132;77;20952;-83
2022/10/20 02:17:13;;;;;;;18.03;12.13;;;;;;;1.75;90.42;99916.11;2302562;77;21119;-83
2022/10/20 02:20:14;;;;;;;21.50;12.90;;;;;;;1.71;90.26;99917.56;2302743;77;20971;-83
2022/10/20 02:23:14;;;;;;;17.10;10.77;;;;;;;1.68;90.16;99916.08;2303115;77;21006;-84
2022/10/20 02:26:15;;;;;;;15.60;10.83;;;;;;;1.65;90.05;99923.61;2303142;77;20935;-83
2022/10/20 02:29:15;;;;;;;16.53;11.13;;;;;;;1.58;89.80;99917.58;2302707;77;21288;-81
2022/10/20 02:32:16;;;;;;;19.70;10.50;;;;;;;1.50;89.60;99917.09;2302733;77;20947;-83
2022/10/20 02:35:16;;;;;;;17.83;10.53;;;;;;;1.46;89.88;99926.69;2302642;77;20946;-82
2022/10/20 02:38:16;;;;;;;15.20;11.17;;;;;;;1.43;89.69;99919.17;2303059;77;20955;-82
2022/10/20 02:41:19;;;;;;;18.63;11.47;;;;;;;1.28;89.24;99925.09;2302761;77;20927;-84
2022/10/20 02:44:21;;;;;;;18.40;10.20;;;;;;;1.28;89.24;99925.09;2302838;77;20939;-84
2022/10/20 02:47:21;;;;;;;23.90;11.63;;;;;;;1.25;89.31;99928.75;2302821;77;20939;-84
2022/10/20 02:50:21;;;;;;;15.27;10.60;;;;;;;1.24;89.49;99932.52;2302721;77;20975;-84
2022/10/20 02:53:21;;;;;;;14.27;10.20;;;;;;;1.21;89.49;99925.88;2302205;77;20912;-85
2022/10/20 02:56:21;;;;;;;17.93;10.03;;;;;;;1.15;89.21;99928.94;2302238;77;20967;-83
2022/10/20 02:59:22;;;;;;;32.10;18.03;;;;;;;1.08;89.24;99937.05;2302223;77;20960;-84
2022/10/20 03:02:22;;;;;;;20.57;12.50;;;;;;;1.06;89.44;99942.88;2302896;77;20901;-83
2022/10/20 03:05:25;;;;;;;16.37;11.53;;;;;;;1.04;89.72;99949.20;2302752;77;20948;-84
2022/10/20 03:08:25;;;;;;;19.37;10.37;;;;;;;1.05;89.75;99949.70;2302556;77;20963;-83
2022/10/20 03:11:26;;;;;;;15.33;10.13;;;;;;;1.04;89.58;99951.77;2303310;77;20967;-82
2022/10/20 03:14:26;;;;;;;16.90;10.53;;;;;;;1.04;89.61;99954.73;2302894;77;20982;-83
2022/10/20 03:17:27;;;;;;;23.60;9.90;;;;;;;1.02;89.50;99955.03;2303345;77;20896;-82
2022/10/20 03:20:27;;;;;;;10.33;8.23;;;;;;;0.98;89.33;99959.08;2303217;77;21369;-83
2022/10/20 03:23:28;;;;;;;26.00;11.43;;;;;;;0.94;89.32;99963.52;2303274;77;21351;-83
2022/10/20 03:26:28;;;;;;;31.43;11.33;;;;;;;0.95;90.01;99975.19;2302900;77;20978;-81
2022/10/20 03:29:28;;;;;;;20.40;11.67;;;;;;;1.00;90.00;99970.35;2303077;77;20970;-83
2022/10/20 03:32:29;;;;;;;20.20;10.10;;;;;;;1.06;90.17;99977.19;2303198;77;20931;-83
2022/10/20 03:35:31;;;;;;;18.47;10.50;;;;;;;1.05;89.33;99975.41;2303037;77;21391;-83
2022/10/20 03:38:31;;;;;;;20.10;11.30;;;;;;;0.96;89.18;99982.50;2279845;77;20924;-84
2022/10/20 03:41:32;;;;;;;13.47;10.20;;;;;;;0.91;89.45;99982.20;2303500;77;20939;-83
2022/10/20 03:44:32;;;;;;;36.47;11.87;;;;;;;0.90;89.39;99986.84;2303417;77;20979;-85
2022/10/20 03:47:33;;;;;;;133.93;17.43;;;;;;;0.90;89.79;99989.80;2303108;77;20963;-84
2022/10/20 03:50:33;;;;;;;22.20;11.33;;;;;;;0.94;89.98;99986.66;2303233;77;20959;-84
2022/10/20 03:53:34;;;;;;;41.07;13.13;;;;;;;0.97;89.56;99979.54;2302889;77;20908;-84
2022/10/20 03:56:34;;;;;;;20.77;11.90;;;;;;;0.92;89.38;99978.84;2302360;77;20936;-84
2022/10/20 03:59:34;;;;;;;20.10;11.37;;;;;;;0.90;89.33;99974.38;2302014;77;20963;-83
2022/10/20 04:02:35;;;;;;;20.53;11.57;;;;;;;0.88;89.26;99973.38;2302584;77;21306;-84
2022/10/20 04:05:35;;;;;;;22.97;12.03;;;;;;;0.83;89.42;99976.00;2301741;77;20924;-83
2022/10/20 04:08:36;;;;;;;25.17;11.23;;;;;;;0.84;89.65;99977.78;2301323;77;20927;-83
2022/10/20 04:11:36;;;;;;;21.53;11.10;;;;;;;0.87;89.75;99983.17;2301400;77;20966;-82
2022/10/20 04:14:36;;;;;;;22.50;10.90;;;;;;;0.90;89.59;99981.70;2301082;77;21339;-84
2022/10/20 04:17:37;;;;;;;147.23;15.43;;;;;;;0.89;89.32;99982.88;2301153;77;20920;-84
2022/10/20 04:20:37;;;;;;;120.70;16.63;;;;;;;0.90;89.76;99980.80;2300726;77;20968;-84
2022/10/20 04:23:38;;;;;;;40.33;12.67;;;;;;;0.90;89.88;99984.66;2301055;77;20932;-84
2022/10/20 04:26:38;;;;;;;37.07;12.07;;;;;;;0.92;90.13;99985.66;2301662;77;20924;-84
2022/10/20 04:29:38;;;;;;;23.07;12.03;;;;;;;0.94;89.31;99981.52;2301687;77;20951;-82
2022/10/20 04:32:39;;;;;;;123.43;16.33;;;;;;;0.87;88.93;99979.31;2301401;77;20946;-83
2022/10/20 04:35:39;;;;;;;24.10;11.00;;;;;;;0.81;89.23;99975.90;2300239;77;20952;-83
2022/10/20 04:38:40;;;;;;;31.03;11.23;;;;;;;0.76;88.79;99981.13;2300248;77;20932;-83
2022/10/20 04:41:40;;;;;;;27.40;13.03;;;;;;;0.72;88.82;99979.52;2300920;77;21336;-84
2022/10/20 04:44:40;;;;;;;27.93;13.43;;;;;;;0.70;89.20;99977.24;2301317;77;20880;-82
2022/10/20 04:47:41;;;;;;;29.87;13.37;;;;;;;0.70;89.35;99975.95;2301076;77;21019;-83
2022/10/20 04:50:41;;;;;;;34.07;14.27;;;;;;;0.71;89.54;99977.73;2299786;77;21489;-82
2022/10/20 04:53:42;;;;;;;35.30;13.23;;;;;;;0.75;89.57;99974.20;2299858;77;20943;-82
2022/10/20 04:56:42;;;;;;;24.97;12.40;;;;;;;0.75;89.02;99974.59;2300051;77;20943;-83
2022/10/20 04:59:43;;;;;;;39.67;12.67;;;;;;;0.69;88.62;99970.32;2299779;77;20932;-83
2022/10/20 05:02:43;;;;;;;41.30;25.37;;;;;;;0.62;88.57;99965.16;2300551;77;20924;-83
2022/10/20 05:05:43;;;;;;;65.73;28.37;;;;;;;0.59;88.54;99959.41;2301351;77;21316;-83
2022/10/20 05:08:45;;;;;;;32.07;16.13;;;;;;;0.52;88.29;99965.31;2300243;77;20967;-82
2022/10/20 05:11:45;;;;;;;26.13;14.73;;;;;;;0.53;88.90;99967.98;2300483;77;21007;-85
2022/10/20 05:14:45;;;;;;;23.53;13.20;;;;;;;0.59;89.03;99972.66;2300700;77;21343;-85
2022/10/20 05:17:45;;;;;;;25.13;14.03;;;;;;;0.55;88.43;99965.52;2299203;77;20923;-83
2022/10/20 05:20:45;;;;;;;21.73;12.87;;;;;;;0.49;88.34;99971.13;2298954;77;21018;-84
2022/10/20 05:23:46;;;;;;;25.37;12.70;;;;;;;0.50;88.72;99970.34;2299261;77;20919;-82
2022/10/20 05:26:46;;;;;;;21.53;12.47;;;;;;;0.53;88.77;99968.38;2299327;77;21348;-83
2022/10/20 05:29:47;;;;;;;27.40;11.83;;;;;;;0.53;88.64;99966.70;2298822;77;21324;-85
2022/10/20 05:32:47;;;;;;;20.63;11.63;;;;;;;0.57;88.63;99975.12;2298360;77;20932;-84
2022/10/20 05:35:47;;;;;;;23.43;12.30;;;;;;;0.63;88.59;99969.50;2297951;77;20980;-84
2022/10/20 05:38:48;;;;;;;19.53;11.67;;;;;;;0.66;88.17;99973.56;2299458;77;20912;-80
2022/10/20 05:41:48;;;;;;;19.73;11.70;;;;;;;0.67;88.05;99977.92;2299685;77;20924;-84
2022/10/20 05:44:49;;;;;;;19.13;10.63;;;;;;;0.72;88.14;99973.09;2299805;77;20963;-86
2022/10/20 05:47:49;;;;;;;23.87;11.10;;;;;;;0.75;88.03;99974.20;2300138;77;20896;-85
2022/10/20 05:50:50;;;;;;;19.30;11.27;;;;;;;0.77;87.73;99970.05;2299704;77;20967;-85
2022/10/20 05:53:50;;;;;;;30.93;11.70;;;;;;;0.81;87.81;99966.02;2299764;77;20908;-84
2022/10/20 05:56:50;;;;;;;32.13;11.93;;;;;;;0.83;87.79;99967.00;2299961;77;21280;-85
2022/10/20 05:59:51;;;;;;;23.57;11.10;;;;;;;0.98;87.95;99971.93;2300932;77;20936;-87
2022/10/20 06:02:51;;;;;;;616.07;388.80;;;;;;;1.06;87.52;99967.30;2299957;77;20911;-86
2022/10/20 06:05:52;;;;;;;82.97;48.33;;;;;;;5.00;100.00;99960.34;2300567;77;20908;-88
2022/10/20 06:08:52;;;;;;;39.83;21.53;;;;;;;5.81;85.19;99960.53;2299993;77;20979;-88
2022/10/20 06:11:53;;;;;;;24.23;12.83;;;;;;;4.88;81.00;99966.17;2299744;77;20916;-88
2022/10/20 06:14:55;;;;;;;17.20;10.73;;;;;;;4.14;80.10;99972.95;2300418;77;21407;-86
2022/10/20 06:17:55;;;;;;;14.33;8.73;;;;;;;3.58;79.87;99974.55;2277273;77;20932;-88
2022/10/20 06:20:56;;;;;;;10.87;9.00;;;;;;;3.18;80.79;99977.77;2299374;77;21387;-88
2022/10/20 06:23:56;;;;;;;15.13;8.40;;;;;;;2.99;81.40;99982.23;2300000;77;20931;-80
2022/10/20 06:26:56;;;;;;;41.73;9.90;;;;;;;2.86;81.92;99978.44;2300849;77;20920;-87
2022/10/20 06:29:57;;;;;;;33.30;9.30;;;;;;;2.81;82.85;99983.31;2300466;77;21406;-86
2022/10/20 06:32:57;;;;;;;17.10;8.87;;;;;;;2.82;83.43;99983.80;2300100;77;21316;-85
2022/10/20 06:35:58;;;;;;;17.30;9.37;;;;;;;2.97;84.28;99995.44;2300262;77;20939;-89
2022/10/20 06:38:58;;;;;;;126.43;15.63;;;;;;;2.97;84.28;99995.44;2299661;77;20931;-81
2022/10/20 06:42:00;;;;;;;34.40;10.93;;;;;;;3.12;84.78;100000.22;2300120;77;20916;-86
2022/10/20 06:44:59;;;;;;;9.67;8.23;;;;;;;3.28;84.93;100001.12;2299892;77;21339;-86
2022/10/20 06:47:59;;;;;;;16.67;9.27;;;;;;;3.47;84.61;100006.20;2299787;77;20908;-86
2022/10/20 06:51:00;;;;;;;39.17;11.33;;;;;;;3.53;84.23;100006.95;2300134;77;20991;-87
2022/10/20 06:54:00;;;;;;;229.80;31.23;;;;;;;3.61;84.46;100013.45;2300755;77;20971;-86
2022/10/20 06:57:01;;;;;;;24.37;11.47;;;;;;;3.78;85.24;100014.02;2300009;77;21420;-87
2022/10/20 07:00:01;;;;;;;13.03;8.97;;;;;;;3.92;84.58;100019.07;2299246;77;20912;-86
2022/10/20 07:03:01;;;;;;;13.37;9.43;;;;;;;4.06;84.58;100020.34;2299162;77;20920;-89
2022/10/20 07:06:02;;;;;;;22.17;11.30;;;;;;;4.16;84.32;100031.67;2299531;77;21608;-83
2022/10/20 07:09:07;;;;;;;15.00;10.03;;;;;;;4.28;84.87;100021.13;2299438;77;20988;-87
2022/10/20 07:12:05;;;;;;;17.33;10.47;;;;;;;4.41;84.85;100014.56;2299355;77;20907;-83
2022/10/20 07:15:06;;;;;;;19.33;10.97;;;;;;;4.60;85.27;100016.45;2298795;77;21339;-88
2022/10/20 07:18:06;;;;;;;20.20;11.60;;;;;;;4.84;85.66;100019.45;2298780;77;20912;-83
2022/10/20 07:21:06;;;;;;;17.93;12.10;;;;;;;5.07;85.71;100021.95;2298230;77;21006;-85
2022/10/20 07:24:08;;;;;;;20.10;13.20;;;;;;;5.32;86.22;100023.73;2299866;77;20940;-86
2022/10/20 07:27:09;;;;;;;35.10;20.60;;;;;;;5.51;86.15;100025.56;2277468;77;20928;-86
2022/10/20 07:30:10;;;;;;;32.07;19.40;;;;;;;5.63;85.48;100027.47;2299072;77;20959;-87
2022/10/20 07:33:10;;;;;;;27.57;18.50;;;;;;;5.83;85.77;100030.16;2298794;77;21355;-85
2022/10/20 07:36:11;;;;;;;32.83;18.83;;;;;;;6.06;85.58;100029.20;2299610;77;21409;-85
2022/10/20 07:39:11;;;;;;;30.93;18.10;;;;;;;6.24;85.06;100029.23;2299592;77;20963;-83
2022/10/20 07:42:11;;;;;;;30.83;17.10;;;;;;;6.43;84.75;100030.09;2301224;77;20904;-84
2022/10/20 07:45:12;;;;;;;43.87;18.50;;;;;;;6.53;84.37;100032.30;2300641;77;20932;-84
2022/10/20 07:48:12;;;;;;;27.27;17.77;;;;;;;6.72;84.54;100033.63;2300781;77;20944;-84
2022/10/20 07:51:13;;;;;;;64.50;36.80;;;;;;;6.82;83.99;100033.23;2300850;77;21014;-85
2022/10/20 07:54:13;;;;;;;46.47;27.93;;;;;;;6.89;83.58;100026.20;2300934;77;21359;-86
2022/10/20 07:57:13;;;;;;;27.57;16.97;;;;;;;7.01;83.26;100029.38;2300182;77;21360;-86
2022/10/20 08:00:14;;;;;;;38.07;16.43;;;;;;;7.06;83.32;100021.80;2300140;77;20900;-87
2022/10/20 08:03:14;;;;;;;26.20;14.93;;;;;;;7.15;83.59;100026.09;2300081;77;20884;-85
2022/10/20 08:06:15;;;;;;;23.53;14.77;;;;;;;7.30;84.04;100016.79;2300060;77;20927;-85
2022/10/20 08:09:15;;;;;;;22.67;13.43;;;;;;;7.50;84.08;100015.94;2299725;77;20951;-87
2022/10/20 08:12:15;;;;;;;16.57;11.33;;;;;;;7.71;84.19;100016.36;2300104;77;20983;-86
2022/10/20 08:15:16;;;;;;;17.53;11.43;;;;;;;7.91;83.90;100018.10;2300232;77;21295;-85
2022/10/20 08:18:16;;;;;;;21.97;12.67;;;;;;;8.02;83.01;100014.23;2300172;77;20892;-85
2022/10/20 08:21:17;;;;;;;17.60;10.47;;;;;;;8.15;83.23;100017.80;2299315;77;20987;-82
2022/10/20 08:24:17;;;;;;;12.13;8.00;;;;;;;8.25;82.80;100016.03;2300040;77;20951;-87
2022/10/20 08:27:18;;;;;;;19.07;8.70;;;;;;;8.31;82.23;100014.09;2299723;77;20923;-83
2022/10/20 08:30:18;;;;;;;12.80;8.53;;;;;;;8.46;82.48;100019.92;2299773;77;20904;-83
2022/10/20 08:33:18;;;;;;;164.90;17.67;;;;;;;8.69;82.80;100016.04;2300236;77;20912;-85
2022/10/20 08:36:19;;;;;;;16.83;8.37;;;;;;;8.76;81.94;100026.74;2300914;77;20904;-82
2022/10/20 08:39:19;;;;;;;13.20;8.00;;;;;;;8.88;81.50;100021.11;2300497;77;21374;-83
2022/10/20 08:42:20;;;;;;;16.17;9.33;;;;;;;9.02;81.27;100022.91;2300449;77;20958;-82
2022/10/20 08:45:20;;;;;;;16.80;9.60;;;;;;;9.02;80.96;100026.41;2300739;77;20919;-84
2022/10/20 08:48:20;;;;;;;36.90;9.57;;;;;;;9.26;80.52;100027.70;2300242;77;20939;-84
2022/10/20 08:51:21;;;;;;;17.93;6.27;;;;;;;9.40;79.70;100019.08;2300470;77;20967;-82
2022/10/20 08:54:22;;;;;;;7.47;5.80;;;;;;;9.57;78.98;100021.88;2299241;77;20920;-83
2022/10/20 08:57:22;;;;;;;110.68;12.00;;;;;;;9.71;78.40;100025.84;2299361;77;20915;-83
2022/10/20 09:00:22;;;;;;;7.00;5.05;;;;;;;9.73;77.25;100024.59;2298138;77;20876;-83
2022/10/20 09:03:23;;;;;;;15.77;5.77;;;;;;;9.53;77.65;100026.07;2298525;77;20951;-81
2022/10/20 09:06:23;;;;;;;14.23;5.65;;;;;;;9.34;77.93;100024.95;2298911;77;20958;-81
2022/10/20 09:09:23;;;;;;;8.20;4.80;;;;;;;9.42;78.29;100026.12;2298962;77;20935;-82
2022/10/20 09:12:24;;;;;;;10.70;4.60;;;;;;;9.67;77.92;100029.60;2298619;77;20984;-81
2022/10/20 09:15:25;;;;;;;9.90;4.92;;;;;;;9.75;76.93;100026.84;2298538;77;20940;-82
2022/10/20 09:18:25;;;;;;;7.30;4.13;;;;;;;9.76;77.82;100016.46;2298773;77;20920;-81
2022/10/20 09:21:25;;;;;;;5.67;3.90;;;;;;;9.92;77.06;100014.36;2293481;77;21760;-82
2022/10/20 09:24:26;;;;;;;231.20;17.00;;;;;;;10.08;76.39;100008.80;2287069;77;21406;-83
2022/10/20 09:27:26;;;;;;;6.58;3.50;;;;;;;10.25;75.33;100017.20;2287146;78;20932;-83
2022/10/20 09:30:26;;;;;;;19.73;4.00;;;;;;;10.38;74.20;100021.55;2287349;77;20889;-82
2022/10/20 09:33:27;;;;;;;32.05;4.58;;;;;;;10.51;72.21;100018.94;2287184;77;20987;-83
2022/10/20 09:36:27;;;;;;;5.92;2.75;;;;;;;10.57;72.77;100017.81;2286605;77;21360;-82
2022/10/20 09:39:27;;;;;;;3.70;3.30;;;;;;;10.70;71.29;100017.77;2285666;77;20932;-81
2022/10/20 09:42:28;;;;;;;8.53;3.72;;;;;;;10.82;70.97;100021.62;2286269;78;20900;-80
2022/10/20 09:45:28;;;;;;;7.20;3.15;;;;;;;10.93;70.56;100012.80;2286367;77;21336;-81
2022/10/20 09:48:29;;;;;;;5.87;2.87;;;;;;;10.81;69.46;100013.33;2285996;77;20924;-81
2022/10/20 09:51:29;;;;;;;6.37;2.65;;;;;;;11.04;69.26;100011.80;2285529;77;20976;-83
2022/10/20 09:54:29;;;;;;;2.98;2.10;;;;;;;11.30;69.68;100012.12;2286161;77;20983;-83
2022/10/20 09:57:30;;;;;;;4.62;2.47;;;;;;;11.56;66.17;100004.09;2286112;78;20952;-82
2022/10/20 10:00:30;;;;;;;11.22;3.45;;;;;;;11.71;66.90;100001.88;2286397;78;20924;-82
2022/10/20 10:03:31;;;;;;;24.10;3.92;;;;;;;11.95;66.39;99999.03;2286381;77;20893;-80
2022/10/20 10:06:31;;;;;;;2.70;2.50;;;;;;;12.16;65.20;100000.89;2286698;77;21619;-80
2022/10/20 10:09:34;;;;;;;63.28;6.72;;;;;;;12.25;64.49;99993.67;2256062;78;20920;-79
2022/10/20 10:12:34;;;;;;;5.80;2.77;;;;;;;12.36;64.86;99994.80;2286342;77;20948;-81
2022/10/20 10:15:34;;;;;;;3.20;2.40;;;;;;;12.49;62.06;99995.54;2286488;77;20986;-81
2022/10/20 10:18:35;;;;;;;6.03;2.27;;;;;;;12.55;62.73;99996.98;2285651;78;20943;-81
2022/10/20 10:21:35;;;;;;;17.20;2.85;;;;;;;12.60;61.61;99987.50;2288279;78;21372;-83
2022/10/20 10:24:36;;;;;;;19.50;3.65;;;;;;;12.38;61.49;99982.20;2292184;78;20954;-83
2022/10/20 10:27:36;;;;;;;27.32;15.70;;;;;;;12.24;62.27;99987.98;2293157;78;21333;-80
2022/10/20 10:30:37;;;;;;;10.93;4.05;;;;;;;12.48;62.18;99976.75;2293695;78;20976;-82
2022/10/20 10:33:37;;;;;;;4.25;2.90;;;;;;;12.53;61.66;99979.47;2294360;78;20946;-82
2022/10/20 10:36:37;;;;;;;6.80;3.52;;;;;;;12.71;61.10;99980.75;2294393;78;20890;-82
2022/10/20 10:39:38;;;;;;;5.53;3.55;;;;;;;12.56;60.02;99969.06;2294508;78;20932;-82
2022/10/20 10:42:38;;;;;;;8.63;3.90;;;;;;;12.83;60.51;99966.14;2293878;78;20928;-82
2022/10/20 10:45:38;;;;;;;8.83;3.80;;;;;;;13.05;58.65;99961.81;2293459;78;20916;-82
2022/10/20 10:48:39;;;;;;;5.55;3.77;;;;;;;13.20;58.35;99959.52;2293562;78;21007;-80
2022/10/20 10:51:39;;;;;;;4.95;3.65;;;;;;;13.21;58.98;99954.73;2293562;78;21708;-82
2022/10/20 10:54:40;;;;;;;8.23;4.40;;;;;;;13.09;58.03;99947.91;2293861;78;20948;-81
2022/10/20 10:57:40;;;;;;;13.40;4.50;;;;;;;12.74;58.16;99952.00;2294004;78;21042;-83
2022/10/20 11:00:40;;;;;;;8.30;4.40;;;;;;;12.38;58.72;99956.45;2294166;78;20932;-83
2022/10/20 11:03:41;;;;;;;10.63;5.45;;;;;;;11.95;58.62;99951.93;2293296;77;21332;-83
2022/10/20 11:06:43;;;;;;;8.20;4.45;;;;;;;11.61;60.28;99944.95;2294253;78;21388;-82
2022/10/20 11:09:42;;;;;;;8.70;5.12;;;;;;;11.44;61.26;99948.03;2294234;78;20955;-82
2022/10/20 11:12:42;;;;;;;6.72;4.95;;;;;;;11.35;61.42;99942.56;2294049;78;21659;-83
2022/10/20 11:15:43;;;;;;;7.10;4.90;;;;;;;11.15;61.54;99950.27;2293761;78;20959;-82
2022/10/20 11:18:43;;;;;;;8.40;5.40;;;;;;;10.97;61.67;99944.11;2294575;78;20979;-81
2022/10/20 11:21:43;;;;;;;11.38;6.45;;;;;;;10.87;62.27;99938.59;2300749;77;21425;-84
2022/10/20 11:24:44;;;;;;;43.95;9.43;;;;;;;10.78;62.55;99938.80;2311820;77;20958;-83
2022/10/20 11:27:44;;;;;;;10.60;7.12;;;;;;;10.77;62.26;99929.62;2312142;77;21008;-82
2022/10/20 11:30:45;;;;;;;14.93;7.33;;;;;;;10.70;61.35;99928.55;2312103;77;21005;-83
2022/10/20 11:33:45;;;;;;;12.45;7.50;;;;;;;10.68;62.23;99921.10;2311876;77;21371;-86
2022/10/20 11:36:46;;;;;;;13.38;6.97;;;;;;;10.70;62.49;99922.03;2312372;77;21366;-83
2022/10/20 11:39:46;;;;;;;10.08;6.08;;;;;;;10.70;61.45;99918.11;2313100;77;21316;-83
2022/10/20 11:42:47;;;;;;;66.72;10.35;;;;;;;10.64;61.28;99915.33;2312033;77;20939;-80
2022/10/20 11:45:47;;;;;;;6.20;3.37;;;;;;;10.91;61.07;99906.49;2312454;77;20939;-83
2022/10/20 11:52:02;;;;;;;5.58;2.85;;;;;;;11.36;58.73;99896.39;2237847;79;22294;-82
2022/10/20 11:55:03;;;;;;;3.33;2.50;;;;;;;11.51;57.88;99899.39;2188253;81;21119;-82
2022/10/20 11:58:03;;;;;;;334.30;209.43;;;;;;;11.59;57.27;99893.05;2189268;81;20960;-81
2022/10/20 12:01:04;;;;;;;13.60;10.23;;;;;;;11.65;57.04;99891.88;2189267;81;20991;-83
2022/10/20 12:04:22;;;;;;;14.30;4.58;;;;;;;11.73;58.02;99881.17;2188758;81;21070;-83
2022/10/20 12:07:22;;;;;;;23.25;3.98;;;;;;;11.86;57.38;99871.92;2188925;81;21007;-82
2022/10/20 12:10:23;;;;;;;4.47;2.58;;;;;;;11.93;57.04;99872.09;2187823;81;21490;-80
2022/10/20 12:13:23;;;;;;;7.20;3.72;;;;;;;11.88;56.83;99872.41;2186669;81;21006;-81
2022/10/20 12:16:23;;;;;;;5.47;3.60;;;;;;;11.93;57.28;99863.36;2187291;81;20953;-81
2022/10/20 12:19:24;;;;;;;9.55;3.60;;;;;;;12.11;57.50;99866.38;2186700;81;21046;-81
2022/10/20 12:22:24;;;;;;;5.35;3.33;;;;;;;12.20;57.16;99861.38;2185666;81;21368;-84
2022/10/20 12:25:25;;;;;;;6.17;3.55;;;;;;;12.29;56.56;99856.34;2185143;81;21740;-80
2022/10/20 12:28:26;;;;;;;8.98;2.92;;;;;;;12.31;55.61;99856.37;2185738;81;20968;-81
2022/10/20 12:31:26;;;;;;;13.10;6.47;;;;;;;12.32;55.15;99854.21;2185763;81;20979;-81
2022/10/20 12:34:26;;;;;;;9.00;4.00;;;;;;;12.25;54.67;99849.70;2185797;81;20952;-81
2022/10/20 12:37:26;;;;;;;5.47;3.52;;;;;;;12.21;56.08;99849.17;2185863;81;20940;-80
2022/10/20 12:40:27;;;;;;;5.70;3.35;;;;;;;12.17;53.96;99840.80;2187485;81;20924;-82
2022/10/20 12:43:27;;;;;;;6.53;3.98;;;;;;;12.05;55.79;99842.27;2187583;81;21487;-82
2022/10/20 12:46:30;;;;;;;6.45;3.67;;;;;;;12.00;54.97;99843.02;2187749;81;20941;-81
2022/10/20 12:49:28;;;;;;;8.18;3.83;;;;;;;11.82;54.29;99836.95;2186986;81;20999;-81
2022/10/20 12:52:28;;;;;;;4.47;3.47;;;;;;;11.76;55.62;99840.70;2171588;81;21475;-81
2022/10/20 12:55:29;;;;;;;5.37;3.52;;;;;;;11.79;55.03;99839.08;2171774;81;21011;-82
2022/10/20 12:58:29;;;;;;;5.40;3.27;;;;;;;11.72;54.25;99834.52;2172529;81;20998;-86
2022/10/20 13:01:30;;;;;;;2.90;2.05;;;;;;;11.68;54.31;99835.30;2172742;81;20957;-84
2022/10/20 13:04:30;;;;;;;5.25;2.98;;;;;;;11.68;53.96;99834.41;2172209;81;20980;-83
2022/10/20 13:07:30;;;;;;;4.10;2.30;;;;;;;11.56;54.07;99832.83;2171659;81;20969;-83
2022/10/20 13:10:31;;;;;;;3.98;2.40;;;;;;;11.51;54.20;99833.14;2171191;81;21003;-83
2022/10/20 13:13:31;;;;;;;16.65;3.40;;;;;;;11.47;54.23;99834.80;2171037;81;21012;-83
2022/10/20 13:16:35;;;;;;;12.00;3.20;;;;;;;11.44;54.56;99829.50;2170714;82;21043;-82
2022/10/20 13:19:35;;;;;;;168.50;13.10;;;;;;;11.38;55.11;99831.97;2171877;81;20964;-83
2022/10/20 13:22:36;;;;;;;9.60;2.83;;;;;;;11.37;55.65;99827.16;2170119;81;21007;-83
2022/10/20 13:25:36;;;;;;;8.88;2.50;;;;;;;11.38;55.38;99823.70;2170698;81;21020;-83
2022/10/20 13:28:36;;;;;;;405.80;31.15;;;;;;;11.38;55.27;99821.08;2170390;81;21005;-84
2022/10/20 13:31:37;;;;;;;6.40;2.67;;;;;;;11.32;55.09;99815.70;2170206;82;21008;-83
2022/10/20 13:34:37;;;;;;;4.37;2.12;;;;;;;11.25;55.04;99818.10;2170288;82;21273;-84
2022/10/20 13:37:37;;;;;;;4.95;1.90;;;;;;;11.21;55.13;99814.53;2170258;82;21415;-83
2022/10/20 13:40:38;;;;;;;6.08;1.80;;;;;;;11.18;54.75;99817.06;2170689;81;20936;-83
2022/10/20 13:43:38;;;;;;;6.20;1.77;;;;;;;11.14;54.98;99824.37;2170925;82;21024;-83
2022/10/20 13:46:39;;;;;;;2.37;1.57;;;;;;;11.12;54.98;99820.83;2171094;81;21380;-80
2022/10/20 13:49:39;;;;;;;17.50;2.40;;;;;;;11.04;54.62;99811.92;2171183;81;20988;-81
2022/10/20 13:52:39;;;;;;;1.72;1.42;;;;;;;11.04;55.12;99806.70;2188230;81;20972;-83
2022/10/20 13:55:40;;;;;;;1.60;1.50;;;;;;;11.06;53.64;99807.62;2188635;81;20963;-83
2022/10/20 13:58:40;;;;;;;2.60;1.70;;;;;;;11.03;54.97;99798.39;2188244;81;21347;-82
2022/10/20 14:01:41;;;;;;;3.72;1.60;;;;;;;11.02;55.30;99803.16;2187583;81;21047;-83